createdAt,value
2023-04-05T00:01:12.351Z,6.50
2023-04-05T00:03:41.181Z,6.40
2023-04-05T00:06:13.051Z,6.30
2023-04-05T00:08:41.310Z,6.20
2023-04-05T00:11:09.376Z,6.20
2023-04-05T00:13:38.918Z,6.10
2023-04-05T00:16:08.457Z,6.10
2023-04-05T00:18:38.412Z,6.10
2023-04-05T00:21:07.050Z,6.10
2023-04-05T00:23:39.574Z,6.10
2023-04-05T00:26:07.528Z,6.00
2023-04-05T00:28:36.235Z,6.10
2023-04-05T00:31:05.206Z,6.10
2023-04-05T00:33:33.313Z,6.10
2023-04-05T00:36:10.412Z,6.10
2023-04-05T00:38:41.104Z,6.10
2023-04-05T00:41:09.689Z,6.10
2023-04-05T00:43:37.782Z,5.90
2023-04-05T00:46:06.921Z,5.90
2023-04-05T00:48:35.610Z,6.00
2023-04-05T00:51:03.785Z,6.00
2023-04-05T00:53:32.545Z,5.90
2023-04-05T00:56:02.951Z,5.90
2023-04-05T00:58:31.900Z,6.00
2023-04-05T01:01:05.374Z,6.00
2023-04-05T01:03:35.670Z,6.10
2023-04-05T01:06:15.470Z,6.10
2023-04-05T01:08:53.139Z,6.20
2023-04-05T01:11:24.259Z,6.20
2023-04-05T01:13:52.376Z,6.30
2023-04-05T01:16:20.353Z,6.30
2023-04-05T01:18:48.353Z,6.30
2023-04-05T01:21:39.127Z,6.30
2023-04-05T01:24:17.031Z,6.30
2023-04-05T01:26:59.001Z,6.30
2023-04-05T01:30:04.980Z,6.30
2023-04-05T01:32:51.309Z,6.30
2023-04-05T01:35:25.839Z,6.30
2023-04-05T01:37:58.590Z,6.30
2023-04-05T01:40:27.145Z,6.30
2023-04-05T01:42:55.250Z,6.30
2023-04-05T01:45:24.695Z,6.30
2023-04-05T01:47:53.314Z,6.20
2023-04-05T01:50:21.749Z,6.20
2023-04-05T01:52:49.728Z,6.20
2023-04-05T01:55:17.918Z,6.10
2023-04-05T01:57:45.997Z,6.10
2023-04-05T02:00:14.861Z,6.10
2023-04-05T02:02:44.219Z,6.20
2023-04-05T02:05:12.292Z,6.10
2023-04-05T02:07:40.296Z,6.10
2023-04-05T02:10:09.715Z,6.10
2023-04-05T02:12:40.005Z,6.10
2023-04-05T02:15:08.994Z,6.00
2023-04-05T02:17:39.365Z,6.00
2023-04-05T02:20:12.487Z,6.00
2023-04-05T02:22:40.872Z,6.00
2023-04-05T02:25:09.789Z,6.00
2023-04-05T02:27:39.380Z,6.00
2023-04-05T02:30:08.654Z,5.90
2023-04-05T02:32:36.982Z,5.90
2023-04-05T02:35:05.557Z,5.90
2023-04-05T02:37:35.007Z,6.00
2023-04-05T02:40:03.988Z,5.90
2023-04-05T02:42:31.971Z,5.90
2023-04-05T02:44:59.956Z,5.80
2023-04-05T02:47:28.976Z,5.70
2023-04-05T02:50:00.377Z,5.70
2023-04-05T02:52:37.500Z,5.70
2023-04-05T02:55:06.375Z,5.60
2023-04-05T02:57:35.549Z,5.60
2023-04-05T03:00:13.082Z,5.50
2023-04-05T03:02:41.319Z,5.50
2023-04-05T03:05:10.320Z,5.50
2023-04-05T03:07:42.527Z,5.50
2023-04-05T03:10:13.800Z,5.40
2023-04-05T03:12:42.813Z,5.40
2023-04-05T03:15:12.517Z,5.30
2023-04-05T03:17:45.869Z,5.30
2023-04-05T03:20:15.012Z,5.30
2023-04-05T03:22:44.443Z,5.30
2023-04-05T03:25:16.127Z,5.30
2023-04-05T03:27:47.914Z,5.30
2023-04-05T03:30:18.653Z,5.30
2023-04-05T03:32:53.911Z,5.30
2023-04-05T03:35:41.360Z,5.30
2023-04-05T03:38:12.785Z,5.20
2023-04-05T03:40:49.087Z,5.10
2023-04-05T03:43:17.095Z,5.10
2023-04-05T03:45:45.421Z,5.00
2023-04-05T03:48:13.696Z,5.00
2023-04-05T03:50:42.725Z,5.00
2023-04-05T03:53:12.166Z,5.00
2023-04-05T03:55:40.699Z,4.90
2023-04-05T03:58:08.893Z,4.90
2023-04-05T04:00:37.961Z,4.80
2023-04-05T04:03:21.021Z,4.80
2023-04-05T04:05:52.389Z,4.80
2023-04-05T04:08:22.791Z,4.80
2023-04-05T04:10:51.489Z,4.80
2023-04-05T04:13:23.962Z,4.80
2023-04-05T04:16:10.373Z,4.80
2023-04-05T04:18:56.946Z,4.70
2023-04-05T04:21:48.699Z,4.70
2023-04-05T04:24:40.932Z,4.70
2023-04-05T04:27:17.065Z,4.60
2023-04-05T04:30:04.537Z,4.70
2023-04-05T04:32:54.735Z,4.70
2023-04-05T04:35:34.754Z,4.70
2023-04-05T04:38:25.895Z,4.60
2023-04-05T04:41:11.770Z,4.50
2023-04-05T04:44:14.772Z,4.60
2023-04-05T04:47:03.697Z,4.50
2023-04-05T04:49:55.105Z,4.50
2023-04-05T04:52:23.133Z,4.50
2023-04-05T04:54:52.313Z,4.50
2023-04-05T04:57:21.688Z,4.50
2023-04-05T04:59:49.824Z,4.50
2023-04-05T05:02:17.809Z,4.40
2023-04-05T05:04:45.881Z,4.40
2023-04-05T05:07:13.821Z,4.50
2023-04-05T05:09:41.787Z,4.40
2023-04-05T05:12:09.809Z,4.40
2023-04-05T05:14:39.202Z,4.40
2023-04-05T05:17:08.644Z,4.40
2023-04-05T05:19:36.585Z,4.50
2023-04-05T05:22:04.564Z,4.40
2023-04-05T05:24:32.527Z,4.40
2023-04-05T05:27:00.539Z,4.40
2023-04-05T05:29:28.653Z,4.40
2023-04-05T05:31:58.045Z,4.50
2023-04-05T05:34:26.469Z,4.50
2023-04-05T05:36:57.852Z,4.50
2023-04-05T05:39:25.862Z,4.50
2023-04-05T05:41:53.840Z,4.50
2023-04-05T05:44:21.822Z,4.50
2023-04-05T05:46:49.890Z,4.60
2023-04-05T05:49:19.537Z,4.60
2023-04-05T05:51:47.560Z,4.60
2023-04-05T05:54:15.559Z,4.60
2023-04-05T05:56:43.522Z,4.60
2023-04-05T05:59:12.016Z,4.70
2023-04-05T06:01:42.486Z,4.70
2023-04-05T06:04:10.739Z,4.80
2023-04-05T06:06:40.499Z,4.80
2023-04-05T06:09:08.476Z,4.90
2023-04-05T06:11:38.974Z,4.90
2023-04-05T06:14:11.506Z,5.00
2023-04-05T06:16:39.605Z,5.10
2023-04-05T06:19:07.636Z,5.10
2023-04-05T06:21:35.645Z,5.10
2023-04-05T06:24:05.318Z,5.10
2023-04-05T06:26:33.288Z,5.20
2023-04-05T06:29:01.302Z,5.20
2023-04-05T06:31:33.215Z,5.30
2023-04-05T06:34:01.268Z,5.50
2023-04-05T06:36:33.928Z,5.70
2023-04-05T06:39:01.934Z,6.00
2023-04-05T06:41:31.276Z,6.20
2023-04-05T06:43:59.278Z,6.30
2023-04-05T06:46:27.487Z,6.50
2023-04-05T06:48:55.582Z,6.70
2023-04-05T06:51:23.720Z,6.70
2023-04-05T06:53:51.718Z,6.80
2023-04-05T06:56:19.698Z,6.90
2023-04-05T06:58:49.639Z,7.30
2023-04-05T07:01:18.531Z,7.30
2023-04-05T07:03:46.518Z,7.10
2023-04-05T07:06:14.504Z,6.80
2023-04-05T07:08:42.759Z,6.60
2023-04-05T07:11:11.319Z,6.50
2023-04-05T07:13:39.376Z,6.40
2023-04-05T07:16:09.031Z,6.40
2023-04-05T07:18:37.059Z,6.30
2023-04-05T07:21:05.141Z,6.40
2023-04-05T07:23:33.213Z,6.40
2023-04-05T07:26:04.391Z,6.50
2023-04-05T07:28:33.722Z,6.60
2023-04-05T07:31:01.840Z,6.60
2023-04-05T07:33:31.318Z,6.80
2023-04-05T07:35:59.530Z,6.80
2023-04-05T07:38:29.238Z,6.90
2023-04-05T07:40:57.419Z,6.90
2023-04-05T07:43:25.832Z,7.00
2023-04-05T07:45:53.949Z,7.00
2023-04-05T07:48:22.042Z,7.10
2023-04-05T07:50:52.845Z,7.10
2023-04-05T07:53:20.934Z,7.20
2023-04-05T07:55:48.948Z,7.20
2023-04-05T07:58:17.547Z,7.30
2023-04-05T08:00:45.552Z,7.30
2023-04-05T08:03:13.650Z,7.40
2023-04-05T08:05:41.686Z,7.50
2023-04-05T08:08:11.237Z,7.50
2023-04-05T08:10:40.774Z,7.60
2023-04-05T08:13:08.949Z,7.70
2023-04-05T08:15:37.439Z,7.70
2023-04-05T08:18:05.530Z,7.80
2023-04-05T08:20:39.086Z,7.80
2023-04-05T08:23:07.814Z,7.90
2023-04-05T08:25:37.462Z,8.00
2023-04-05T08:28:05.630Z,8.00
2023-04-05T08:30:33.609Z,8.00
2023-04-05T08:33:01.653Z,8.00
2023-04-05T08:35:29.736Z,8.10
2023-04-05T08:37:57.939Z,8.10
2023-04-05T08:40:34.125Z,8.20
2023-04-05T08:43:11.348Z,8.30
2023-04-05T08:45:47.493Z,8.40
2023-04-05T08:48:15.767Z,8.50
2023-04-05T08:50:43.922Z,8.60
2023-04-05T08:53:12.076Z,8.60
2023-04-05T08:55:41.223Z,8.70
2023-04-05T08:58:15.356Z,8.70
2023-04-05T09:00:44.133Z,8.60
2023-04-05T09:03:16.611Z,8.70
2023-04-05T09:05:48.134Z,8.60
2023-04-05T09:08:16.520Z,8.60
2023-04-05T09:10:45.403Z,8.70
2023-04-05T09:13:14.740Z,8.70
2023-04-05T09:15:42.877Z,8.70
2023-04-05T09:18:23.346Z,8.70
2023-04-05T09:20:58.209Z,8.60
2023-04-05T09:23:26.242Z,8.80
2023-04-05T09:25:54.320Z,8.90
2023-04-05T09:28:23.722Z,9.00
2023-04-05T09:30:51.769Z,8.90
2023-04-05T09:33:22.006Z,8.90
2023-04-05T09:35:52.192Z,9.00
2023-04-05T09:38:41.776Z,9.20
2023-04-05T09:41:10.832Z,9.30
2023-04-05T09:43:41.242Z,9.30
2023-04-05T09:46:17.354Z,9.40
2023-04-05T09:48:49.319Z,9.40
2023-04-05T09:51:17.919Z,9.40
2023-04-05T09:53:59.697Z,9.60
2023-04-05T09:56:28.306Z,9.70
2023-04-05T09:59:02.508Z,9.60
2023-04-05T10:01:32.462Z,9.70
2023-04-05T10:04:01.307Z,9.80
2023-04-05T10:06:40.123Z,9.90
2023-04-05T10:09:10.223Z,9.90
2023-04-05T10:11:39.233Z,9.90
2023-04-05T10:14:09.639Z,9.90
2023-04-05T10:16:42.234Z,9.80
2023-04-05T10:19:21.215Z,9.70
2023-04-05T10:21:50.339Z,9.90
2023-04-05T10:24:29.082Z,10.00
2023-04-05T10:27:05.877Z,10.00
2023-04-05T10:29:52.129Z,10.00
2023-04-05T10:32:31.103Z,9.90
2023-04-05T10:35:08.733Z,9.80
2023-04-05T10:37:43.880Z,9.80
2023-04-05T10:40:14.109Z,9.60
2023-04-05T10:42:44.633Z,9.60
2023-04-05T10:45:19.504Z,9.80
2023-04-05T10:47:51.134Z,9.80
2023-04-05T10:50:23.264Z,9.80
2023-04-05T10:52:52.903Z,9.90
2023-04-05T10:55:22.055Z,9.90
2023-04-05T10:57:51.251Z,10.10
2023-04-05T11:00:21.854Z,10.10
2023-04-05T11:02:54.755Z,10.10
2023-04-05T11:05:34.113Z,10.00
2023-04-05T11:08:06.027Z,10.00
2023-04-05T11:10:37.470Z,9.90
2023-04-05T11:13:07.505Z,9.90
2023-04-05T11:15:37.695Z,9.90
2023-04-05T11:18:11.394Z,10.10
2023-04-05T11:20:44.294Z,10.20
2023-04-05T11:23:13.663Z,10.40
2023-04-05T11:25:46.799Z,10.30
2023-04-05T11:28:24.923Z,10.20
2023-04-05T11:30:57.038Z,10.30
2023-04-05T11:33:56.691Z,10.40
2023-04-05T11:36:33.602Z,10.40
2023-04-05T11:39:24.189Z,10.60
2023-04-05T11:41:57.282Z,10.80
2023-04-05T11:44:25.568Z,10.80
2023-04-05T11:46:55.891Z,10.70
2023-04-05T11:49:25.321Z,10.60
2023-04-05T11:51:54.612Z,10.60
2023-04-05T11:54:32.510Z,10.60
2023-04-05T11:57:02.145Z,10.50
2023-04-05T11:59:31.739Z,10.50
2023-04-05T12:02:02.560Z,10.50
2023-04-05T12:04:30.859Z,10.60
2023-04-05T12:07:15.484Z,10.60
2023-04-05T12:10:09.031Z,10.70
2023-04-05T12:12:38.710Z,10.80
2023-04-05T12:15:09.420Z,10.90
2023-04-05T12:17:43.664Z,11.00
2023-04-05T12:20:12.821Z,11.00
2023-04-05T12:22:42.410Z,11.10
2023-04-05T12:25:11.279Z,11.30
2023-04-05T12:27:40.548Z,11.40
2023-04-05T12:30:16.564Z,11.50
2023-04-05T12:32:48.701Z,11.50
2023-04-05T12:35:21.699Z,11.60
2023-04-05T12:37:52.360Z,11.60
2023-04-05T12:40:24.811Z,11.70
2023-04-05T12:42:53.342Z,11.70
2023-04-05T12:45:24.836Z,11.80
2023-04-05T12:47:57.924Z,11.80
2023-04-05T12:50:30.541Z,11.80
2023-04-05T12:53:00.128Z,11.80
2023-04-05T12:55:30.052Z,11.90
2023-04-05T12:58:00.910Z,12.20
2023-04-05T13:00:30.904Z,12.40
2023-04-05T13:03:01.025Z,12.70
2023-04-05T13:05:30.922Z,12.90
2023-04-05T13:07:59.495Z,13.00
2023-04-05T13:10:27.600Z,12.90
2023-04-05T13:12:55.758Z,13.00
2023-04-05T13:15:23.924Z,13.00
2023-04-05T13:17:53.432Z,13.10
2023-04-05T13:20:23.320Z,13.40
2023-04-05T13:22:51.575Z,13.60
2023-04-05T13:25:19.656Z,13.50
2023-04-05T13:27:47.981Z,13.40
2023-04-05T13:30:16.369Z,13.20
2023-04-05T13:32:44.452Z,13.30
2023-04-05T13:35:12.521Z,13.60
2023-04-05T13:37:41.934Z,14.00
2023-04-05T13:40:10.895Z,14.20
2023-04-05T13:42:39.046Z,14.20
2023-04-05T13:45:08.163Z,14.20
2023-04-05T13:47:37.192Z,14.20
2023-04-05T13:50:06.216Z,14.20
2023-04-05T13:52:34.511Z,13.90
2023-04-05T13:55:04.463Z,14.10
2023-04-05T13:57:32.926Z,14.30
2023-04-05T14:00:01.058Z,14.60
2023-04-05T14:02:29.516Z,14.90
2023-04-05T14:04:57.632Z,14.80
2023-04-05T14:07:26.286Z,14.70
2023-04-05T14:09:54.334Z,14.90
2023-04-05T14:12:23.818Z,14.90
2023-04-05T14:14:52.065Z,15.00
2023-04-05T14:17:20.275Z,15.00
2023-04-05T14:19:48.404Z,15.00
2023-04-05T14:22:16.974Z,15.10
2023-04-05T14:24:45.106Z,15.60
2023-04-05T14:27:13.238Z,16.00
2023-04-05T14:29:44.215Z,16.30
2023-04-05T14:32:12.478Z,16.50
2023-04-05T14:34:40.643Z,17.00
2023-04-05T14:37:08.929Z,17.60
2023-04-05T14:39:37.071Z,18.10
2023-04-05T14:42:05.363Z,18.60
2023-04-05T14:44:33.564Z,18.90
2023-04-05T14:47:03.076Z,19.80
2023-04-05T14:49:31.258Z,20.90
2023-04-05T14:51:59.428Z,21.20
2023-04-05T14:54:27.630Z,21.80
2023-04-05T14:56:55.887Z,22.20
2023-04-05T14:59:24.145Z,22.50
2023-04-05T15:01:52.442Z,23.50
2023-04-05T15:04:22.115Z,24.70
2023-04-05T15:06:50.284Z,25.20
2023-04-05T15:09:18.396Z,24.20
2023-04-05T15:11:46.543Z,23.90
2023-04-05T15:14:24.952Z,24.00
2023-04-05T15:16:59.683Z,24.60
2023-04-05T15:19:30.530Z,24.40
2023-04-05T15:21:58.876Z,24.20
2023-04-05T15:24:27.130Z,23.70
2023-04-05T15:27:01.713Z,22.20
2023-04-05T15:29:30.142Z,20.20
2023-04-05T15:31:58.539Z,18.60
2023-04-05T15:34:28.375Z,17.70
2023-04-05T15:36:56.612Z,17.20
2023-04-05T15:39:25.864Z,16.70
2023-04-05T15:41:53.973Z,16.20
2023-04-05T15:44:22.047Z,16.00
2023-04-05T15:46:50.217Z,15.90
2023-04-05T15:49:18.404Z,15.70
2023-04-05T15:51:47.901Z,15.40
2023-04-05T15:54:18.797Z,15.20
2023-04-05T15:56:47.183Z,15.10
2023-04-05T15:59:15.812Z,15.00
2023-04-05T16:01:44.200Z,14.80
2023-04-05T16:04:12.488Z,14.60
2023-04-05T16:06:40.814Z,14.40
2023-04-05T16:09:10.323Z,14.20
2023-04-05T16:11:38.614Z,14.00
2023-04-05T16:14:07.181Z,13.80
2023-04-05T16:16:45.955Z,13.70
2023-04-05T16:19:21.103Z,13.70
2023-04-05T16:21:49.489Z,13.70
2023-04-05T16:24:19.826Z,13.40
2023-04-05T16:26:47.988Z,13.40
2023-04-05T16:29:16.079Z,13.40
2023-04-05T16:31:47.186Z,13.40
2023-04-05T16:34:15.646Z,13.50
2023-04-05T16:36:43.923Z,13.30
2023-04-05T16:39:12.222Z,13.30
2023-04-05T16:41:41.825Z,13.20
2023-04-05T16:44:10.294Z,13.10
2023-04-05T16:46:38.532Z,13.10
2023-04-05T16:49:06.729Z,13.20
2023-04-05T16:51:36.676Z,13.10
2023-04-05T16:54:05.216Z,13.20
2023-04-05T16:56:33.396Z,13.10
2023-04-05T16:59:04.995Z,13.00
2023-04-05T17:01:34.968Z,13.00
2023-04-05T17:04:03.824Z,12.90
2023-04-05T17:06:32.552Z,12.80
2023-04-05T17:09:00.803Z,12.80
2023-04-05T17:11:29.247Z,12.80
2023-04-05T17:13:59.215Z,12.70
2023-04-05T17:16:28.800Z,12.70
2023-04-05T17:18:57.117Z,12.70
2023-04-05T17:21:25.822Z,12.60
2023-04-05T17:23:54.027Z,12.60
2023-04-05T17:26:23.198Z,12.60
2023-04-05T17:28:51.374Z,12.60
2023-04-05T17:31:20.261Z,12.50
2023-04-05T17:33:49.950Z,12.50
2023-04-05T17:36:18.491Z,12.50
2023-04-05T17:38:46.778Z,12.50
2023-04-05T17:41:14.896Z,12.50
2023-04-05T17:43:43.037Z,12.40
2023-04-05T17:46:13.857Z,12.40
2023-04-05T17:48:42.342Z,12.40
2023-04-05T17:51:11.879Z,12.40
2023-04-05T17:53:40.028Z,12.20
2023-04-05T17:56:08.165Z,12.10
2023-04-05T17:58:36.302Z,12.10
2023-04-05T18:01:04.883Z,12.00
2023-04-05T18:03:33.128Z,12.00
2023-04-05T18:06:02.090Z,12.00
2023-04-05T18:08:31.588Z,11.90
2023-04-05T18:11:00.682Z,11.80
2023-04-05T18:13:29.447Z,11.80
2023-04-05T18:15:59.035Z,11.80
2023-04-05T18:18:28.550Z,11.70
2023-04-05T18:21:01.673Z,11.70
2023-04-05T18:23:31.247Z,11.60
2023-04-05T18:25:59.441Z,11.60
2023-04-05T18:28:28.490Z,11.60
2023-04-05T18:30:56.600Z,11.50
2023-04-05T18:33:24.730Z,11.50
2023-04-05T18:35:53.401Z,11.50
2023-04-05T18:38:21.941Z,11.40
2023-04-05T18:40:51.586Z,11.40
2023-04-05T18:43:19.719Z,11.40
2023-04-05T18:45:47.871Z,11.40
2023-04-05T18:48:16.033Z,11.40
2023-04-05T18:50:44.115Z,11.30
2023-04-05T18:53:12.362Z,11.20
2023-04-05T18:55:40.719Z,11.20
2023-04-05T18:58:10.287Z,11.10
2023-04-05T19:00:38.579Z,11.10
2023-04-05T19:03:06.750Z,11.00
2023-04-05T19:05:34.899Z,11.00
2023-04-05T19:08:02.995Z,10.90
2023-04-05T19:10:32.092Z,10.80
2023-04-05T19:13:00.225Z,10.90
2023-04-05T19:15:29.701Z,10.90
2023-04-05T19:17:58.222Z,10.80
2023-04-05T19:20:26.423Z,10.80
2023-04-05T19:22:54.569Z,10.70
2023-04-05T19:25:22.679Z,10.60
2023-04-05T19:27:50.838Z,10.50
2023-04-05T19:30:19.252Z,10.40
2023-04-05T19:32:48.832Z,10.40
2023-04-05T19:35:17.134Z,10.40
2023-04-05T19:37:45.227Z,10.40
2023-04-05T19:40:13.501Z,10.40
2023-04-05T19:42:47.254Z,10.40
2023-04-05T19:45:22.753Z,10.40
2023-04-05T19:47:52.491Z,10.50
2023-04-05T19:50:46.797Z,10.30
2023-04-05T19:53:43.135Z,10.40
2023-04-05T19:56:14.030Z,10.30
2023-04-05T19:58:43.144Z,10.30
2023-04-05T20:01:11.384Z,10.30
2023-04-05T20:03:42.381Z,10.20
2023-04-05T20:06:12.872Z,10.10
2023-04-05T20:08:42.951Z,10.10
2023-04-05T20:11:14.041Z,10.10
2023-04-05T20:13:46.214Z,10.00
2023-04-05T20:16:15.611Z,10.00
2023-04-05T20:18:47.972Z,10.10
2023-04-05T20:21:17.299Z,10.10
2023-04-05T20:23:46.293Z,10.10
2023-04-05T20:26:16.458Z,10.10
2023-04-05T20:28:53.330Z,10.00
2023-04-05T20:31:24.113Z,9.90
2023-04-05T20:33:55.341Z,9.90
2023-04-05T20:36:29.025Z,9.80
2023-04-05T20:38:57.174Z,9.70
2023-04-05T20:41:25.454Z,9.80
2023-04-05T20:43:54.224Z,9.70
2023-04-05T20:46:22.427Z,9.60
2023-04-05T20:48:51.061Z,9.60
2023-04-05T20:51:20.988Z,9.50
2023-04-05T20:53:49.338Z,9.50
2023-04-05T20:56:17.868Z,9.50
2023-04-05T20:58:46.100Z,9.50
2023-04-05T21:01:14.343Z,9.50
2023-04-05T21:03:43.376Z,9.40
2023-04-05T21:06:11.795Z,9.30
2023-04-05T21:08:41.904Z,9.20
2023-04-05T21:11:11.711Z,9.30
2023-04-05T21:13:41.199Z,9.30
2023-04-05T21:16:09.505Z,9.20
2023-04-05T21:18:37.959Z,9.20
2023-04-05T21:21:06.494Z,9.10
2023-04-05T21:23:34.976Z,9.10
2023-04-05T21:26:06.038Z,9.10
2023-04-05T21:28:34.353Z,9.00
2023-04-05T21:31:02.545Z,9.00
2023-04-05T21:33:30.752Z,8.90
2023-04-05T21:35:59.028Z,8.90
2023-04-05T21:38:27.197Z,8.80
2023-04-05T21:40:55.727Z,8.80
2023-04-05T21:43:25.532Z,8.80
2023-04-05T21:45:53.931Z,8.80
2023-04-05T21:48:22.026Z,8.70
2023-04-05T21:50:50.189Z,8.60
2023-04-05T21:53:18.817Z,8.50
2023-04-05T21:55:46.973Z,8.60
2023-04-05T21:58:15.069Z,8.60
2023-04-05T22:00:44.596Z,8.40
2023-04-05T22:03:12.797Z,8.40
2023-04-05T22:05:42.170Z,8.40
2023-04-05T22:08:10.638Z,8.40
2023-04-05T22:10:39.460Z,8.40
2023-04-05T22:13:07.539Z,8.30
2023-04-05T22:15:35.697Z,8.20
2023-04-05T22:18:05.762Z,8.00
2023-04-05T22:20:34.019Z,8.00
2023-04-05T22:23:02.159Z,7.90
2023-04-05T22:25:30.481Z,7.90
2023-04-05T22:28:00.229Z,7.90
2023-04-05T22:30:40.880Z,7.80
2023-04-05T22:33:13.780Z,7.60
2023-04-05T22:35:42.423Z,7.60
2023-04-05T22:38:10.786Z,7.50
2023-04-05T22:40:38.894Z,7.40
2023-04-05T22:43:07.060Z,7.40
2023-04-05T22:45:35.211Z,7.50
2023-04-05T22:48:03.394Z,7.60
2023-04-05T22:50:33.344Z,7.50
2023-04-05T22:53:01.553Z,7.40
2023-04-05T22:55:29.975Z,7.30
2023-04-05T22:57:58.090Z,7.30
2023-04-05T23:00:26.267Z,7.30
2023-04-05T23:02:54.469Z,7.30
2023-04-05T23:05:22.752Z,7.30
2023-04-05T23:07:52.748Z,7.20
2023-04-05T23:10:21.445Z,7.20
2023-04-05T23:12:49.960Z,7.20
2023-04-05T23:15:18.180Z,7.10
2023-04-05T23:17:46.434Z,7.00
2023-04-05T23:20:14.625Z,7.00
2023-04-05T23:22:42.846Z,7.00
2023-04-05T23:25:12.503Z,7.10
2023-04-05T23:27:40.685Z,7.00
2023-04-05T23:30:09.816Z,7.00
2023-04-05T23:32:37.935Z,6.90
2023-04-05T23:35:06.743Z,6.80
2023-04-05T23:37:34.897Z,6.80
2023-04-05T23:40:03.196Z,6.70
2023-04-05T23:42:32.676Z,6.80
2023-04-05T23:45:02.829Z,6.80
2023-04-05T23:47:31.100Z,6.80
2023-04-05T23:49:59.225Z,6.70
2023-04-05T23:52:27.408Z,6.70
2023-04-05T23:54:55.496Z,6.70
2023-04-05T23:57:24.522Z,6.70
2023-04-05T23:59:53.988Z,6.60
